Time;durP1;ratioP1;P1;durP2;ratioP2;P2;SDS_P1;SDS_P2;PMS_P1;PMS_P2;Temp;Humidity;BMP_temperature;BMP_pressure;BME280_temperature;BME280_humidity;BME280_pressure;Samples;Min_cycle;Max_cycle;Signal;HPM_P1;HPM_P2
2022/03/18 00:01:14;;;;;;;15.93;11.95;;;;;;;;;;4971200;28;20101;-85
2022/03/18 00:03:43;;;;;;;14.38;11.38;;;;;;;;;;4971818;28;20569;-85
2022/03/18 00:06:16;;;;;;;15.18;12.20;;;;;;;;;;4978545;28;20085;-85
2022/03/18 00:08:46;;;;;;;15.23;12.43;;;;;;;;;;4983928;28;20046;-85
2022/03/18 00:11:15;;;;;;;15.98;12.05;;;;;;;;;;4969110;28;20046;-84
2022/03/18 00:13:42;;;;;;;14.35;12.10;;;;;;;;;;4977103;28;20051;-85
2022/03/18 00:16:09;;;;;;;17.38;13.43;;;;;;;;;;4960960;28;20725;-85
2022/03/18 00:18:37;;;;;;;15.00;12.18;;;;;;;;;;4972126;28;20130;-85
2022/03/18 00:21:06;;;;;;;16.15;13.35;;;;;;;;;;4970209;28;20110;-84
2022/03/18 00:23:34;;;;;;;16.63;14.13;;;;;;;;;;4967142;28;20041;-85
2022/03/18 00:26:01;;;;;;;15.07;11.65;;;;;;;;;;4977472;28;20669;-85
2022/03/18 00:28:29;;;;;;;16.05;11.82;;;;;;;;;;4989843;28;20515;-84
2022/03/18 00:30:57;;;;;;;16.08;13.80;;;;;;;;;;4971476;28;20046;-85
2022/03/18 00:33:25;;;;;;;15.00;13.00;;;;;;;;;;4959532;28;20043;-85
2022/03/18 00:35:52;;;;;;;14.48;11.68;;;;;;;;;;4953852;28;20105;-85
2022/03/18 00:38:19;;;;;;;15.73;11.50;;;;;;;;;;4970398;28;20532;-85
2022/03/18 00:40:50;;;;;;;15.88;12.32;;;;;;;;;;4968671;28;20050;-85
2022/03/18 00:43:18;;;;;;;16.88;12.50;;;;;;;;;;4964590;28;20067;-86
2022/03/18 00:45:45;;;;;;;14.70;12.63;;;;;;;;;;4982653;28;20047;-84
2022/03/18 00:53:46;;;;;;;14.02;11.85;;;;;;;;;;4969851;28;20047;-85
2022/03/18 00:56:13;;;;;;;14.18;11.85;;;;;;;;;;4970191;28;20070;-85
2022/03/18 00:58:42;;;;;;;12.52;10.85;;;;;;;;;;4953824;28;20050;-85
2022/03/18 01:01:10;;;;;;;14.20;11.75;;;;;;;;;;4969406;28;20053;-85
2022/03/18 01:03:37;;;;;;;14.43;11.80;;;;;;;;;;4974619;28;20038;-84
2022/03/18 01:06:04;;;;;;;13.55;11.18;;;;;;;;;;4971386;28;20489;-85
2022/03/18 01:08:32;;;;;;;15.27;13.00;;;;;;;;;;4973046;28;20038;-85
2022/03/18 01:11:01;;;;;;;13.13;11.73;;;;;;;;;;4973426;28;20047;-86
2022/03/18 01:13:28;;;;;;;17.30;14.15;;;;;;;;;;4956990;28;20074;-85
2022/03/18 01:15:55;;;;;;;15.00;12.13;;;;;;;;;;4972235;28;20420;-85
2022/03/18 01:18:23;;;;;;;19.48;13.40;;;;;;;;;;4986060;28;20574;-85
2022/03/18 01:20:50;;;;;;;18.77;14.13;;;;;;;;;;4976342;28;20134;-85
2022/03/18 01:23:17;;;;;;;16.45;12.93;;;;;;;;;;4973418;28;20050;-86
2022/03/18 01:25:45;;;;;;;14.25;11.50;;;;;;;;;;4973808;28;20412;-85
2022/03/18 01:28:12;;;;;;;14.65;11.90;;;;;;;;;;4973602;28;20054;-85
2022/03/18 01:30:39;;;;;;;12.73;11.25;;;;;;;;;;4973904;28;20046;-85
2022/03/18 01:33:07;;;;;;;15.07;12.93;;;;;;;;;;4974507;28;20054;-84
2022/03/18 01:35:34;;;;;;;14.25;12.65;;;;;;;;;;4977703;28;20046;-85
2022/03/18 01:38:01;;;;;;;15.55;11.77;;;;;;;;;;4978168;28;20592;-85
2022/03/18 01:40:29;;;;;;;13.90;11.85;;;;;;;;;;4973724;28;20103;-85
2022/03/18 01:42:56;;;;;;;14.25;12.55;;;;;;;;;;4974541;28;20050;-85
2022/03/18 01:45:24;;;;;;;17.08;12.40;;;;;;;;;;4973950;28;20046;-84
2022/03/18 01:47:52;;;;;;;16.98;12.85;;;;;;;;;;4973641;28;20413;-84
2022/03/18 01:50:20;;;;;;;15.52;11.70;;;;;;;;;;4972917;28;20085;-85
2022/03/18 01:52:48;;;;;;;14.55;12.13;;;;;;;;;;4973896;28;20038;-84
2022/03/18 01:55:16;;;;;;;15.55;12.63;;;;;;;;;;4957025;28;20496;-85
2022/03/18 01:57:44;;;;;;;15.38;12.00;;;;;;;;;;4970333;28;20034;-84
2022/03/18 02:00:12;;;;;;;17.13;13.52;;;;;;;;;;4959017;28;20175;-85
2022/03/18 02:02:40;;;;;;;14.75;12.30;;;;;;;;;;4956857;28;20066;-84
2022/03/18 02:05:10;;;;;;;15.88;13.23;;;;;;;;;;4969599;28;20107;-85
2022/03/18 02:07:37;;;;;;;16.65;13.52;;;;;;;;;;4937481;28;20050;-85
2022/03/18 02:10:06;;;;;;;14.95;11.98;;;;;;;;;;4956773;28;20127;-85
2022/03/18 02:12:33;;;;;;;15.90;13.40;;;;;;;;;;4971096;28;20055;-85
2022/03/18 02:15:01;;;;;;;15.88;12.50;;;;;;;;;;4981131;28;20054;-86
2022/03/18 02:17:29;;;;;;;18.02;12.27;;;;;;;;;;4975273;28;20094;-86
2022/03/18 02:19:57;;;;;;;15.93;11.80;;;;;;;;;;4972677;28;20046;-85
2022/03/18 02:22:25;;;;;;;15.55;11.88;;;;;;;;;;4972357;28;20058;-85
2022/03/18 02:24:53;;;;;;;17.15;12.48;;;;;;;;;;4956596;28;20109;-84
2022/03/18 02:27:21;;;;;;;16.55;13.13;;;;;;;;;;4955941;28;20504;-85
2022/03/18 02:29:48;;;;;;;14.95;12.10;;;;;;;;;;4971981;28;20054;-86
2022/03/18 02:32:19;;;;;;;15.27;11.95;;;;;;;;;;4974577;28;20054;-86
2022/03/18 02:34:46;;;;;;;15.82;12.80;;;;;;;;;;4973335;28;20057;-86
2022/03/18 02:37:13;;;;;;;15.27;11.70;;;;;;;;;;4972831;28;20047;-84
2022/03/18 02:39:43;;;;;;;14.27;12.32;;;;;;;;;;4962055;28;20055;-86
2022/03/18 02:42:11;;;;;;;15.82;13.07;;;;;;;;;;4953701;28;20070;-86
2022/03/18 02:44:38;;;;;;;13.82;11.85;;;;;;;;;;4972878;28;20093;-87
2022/03/18 02:47:05;;;;;;;15.93;12.75;;;;;;;;;;4974761;28;20043;-86
2022/03/18 02:49:33;;;;;;;14.13;12.13;;;;;;;;;;4978224;28;20531;-85
2022/03/18 02:52:00;;;;;;;15.55;13.20;;;;;;;;;;4975078;28;20038;-84
2022/03/18 02:54:27;;;;;;;17.77;11.93;;;;;;;;;;4996971;28;20065;-84
2022/03/18 02:56:55;;;;;;;15.63;12.68;;;;;;;;;;4997370;28;20039;-83
2022/03/18 02:59:22;;;;;;;17.15;13.63;;;;;;;;;;4996361;28;20034;-82
2022/03/18 03:01:49;;;;;;;18.02;13.38;;;;;;;;;;4993424;28;20485;-86
2022/03/18 03:04:17;;;;;;;17.92;13.23;;;;;;;;;;4973454;28;20131;-86
2022/03/18 03:09:31;;;;;;;17.95;12.93;;;;;;;;;;4973389;28;20043;-86
2022/03/18 03:11:58;;;;;;;16.52;13.15;;;;;;;;;;4949883;28;20063;-86
2022/03/18 03:14:28;;;;;;;16.95;13.00;;;;;;;;;;5047849;23;20479;-75
2022/03/18 03:16:55;;;;;;;15.63;12.52;;;;;;;;;;5031576;28;20041;-75
2022/03/18 03:19:23;;;;;;;18.60;14.18;;;;;;;;;;5031550;28;20068;-76
2022/03/18 03:21:50;;;;;;;18.90;13.77;;;;;;;;;;5037402;28;20377;-76
2022/03/18 03:24:17;;;;;;;22.95;15.57;;;;;;;;;;5039918;28;20503;-75
2022/03/18 03:26:45;;;;;;;20.83;14.93;;;;;;;;;;5051244;28;20041;-75
2022/03/18 03:29:12;;;;;;;20.13;14.65;;;;;;;;;;5051569;28;20052;-76
2022/03/18 03:31:39;;;;;;;18.25;14.02;;;;;;;;;;5031438;28;20038;-75
2022/03/18 03:34:07;;;;;;;18.25;13.48;;;;;;;;;;5009918;28;20416;-76
2022/03/18 03:36:34;;;;;;;18.92;14.85;;;;;;;;;;5021691;28;20042;-76
2022/03/18 03:39:01;;;;;;;20.45;16.05;;;;;;;;;;5040687;28;20428;-76
2022/03/18 03:41:29;;;;;;;19.98;15.05;;;;;;;;;;5020451;28;20038;-76
2022/03/18 03:43:56;;;;;;;20.42;15.25;;;;;;;;;;5031026;28;20050;-76
2022/03/18 03:46:23;;;;;;;18.45;14.52;;;;;;;;;;5030801;28;20045;-76
2022/03/18 03:48:50;;;;;;;18.27;14.05;;;;;;;;;;5030818;28;20034;-76
2022/03/18 03:51:18;;;;;;;20.10;14.52;;;;;;;;;;5030773;28;20056;-76
2022/03/18 03:53:45;;;;;;;19.30;13.13;;;;;;;;;;5015783;28;20510;-75
2022/03/18 03:56:12;;;;;;;16.35;13.98;;;;;;;;;;5038594;28;20518;-75
2022/03/18 03:58:40;;;;;;;18.25;14.07;;;;;;;;;;5029736;28;20077;-75
2022/03/18 04:01:07;;;;;;;20.05;15.20;;;;;;;;;;5023672;28;20516;-75
2022/03/18 04:03:35;;;;;;;20.02;15.52;;;;;;;;;;5011228;28;20404;-75
2022/03/18 04:06:03;;;;;;;19.70;14.32;;;;;;;;;;5017996;28;20041;-76
2022/03/18 04:08:30;;;;;;;20.40;15.02;;;;;;;;;;5030793;28;20119;-75
2022/03/18 04:10:57;;;;;;;19.77;14.52;;;;;;;;;;5019090;28;20522;-76
2022/03/18 04:13:24;;;;;;;19.90;14.73;;;;;;;;;;5034675;28;20107;-76
2022/03/18 04:15:52;;;;;;;26.33;16.33;;;;;;;;;;5033335;28;20041;-76
2022/03/18 04:18:19;;;;;;;20.50;16.00;;;;;;;;;;5029954;28;20513;-76
2022/03/18 04:20:47;;;;;;;22.50;16.05;;;;;;;;;;5029837;28;20417;-76
2022/03/18 04:23:14;;;;;;;19.80;15.10;;;;;;;;;;5030956;28;20037;-76
2022/03/18 04:25:41;;;;;;;19.70;15.88;;;;;;;;;;5030190;28;20034;-76
2022/03/18 04:28:09;;;;;;;20.90;15.02;;;;;;;;;;5030753;28;20041;-76
2022/03/18 04:30:36;;;;;;;19.42;15.48;;;;;;;;;;5036718;28;20147;-76
2022/03/18 04:33:03;;;;;;;17.40;14.27;;;;;;;;;;5044948;28;20041;-76
2022/03/18 04:35:32;;;;;;;21.27;16.45;;;;;;;;;;5049007;28;20033;-75
2022/03/18 04:37:59;;;;;;;18.02;14.10;;;;;;;;;;5049313;28;20067;-75
2022/03/18 04:40:27;;;;;;;18.55;14.25;;;;;;;;;;5049039;28;20075;-76
2022/03/18 04:42:54;;;;;;;18.88;14.73;;;;;;;;;;5029109;28;20060;-76
2022/03/18 04:45:22;;;;;;;19.58;15.10;;;;;;;;;;5031921;28;20047;-75
2022/03/18 04:47:57;;;;;;;16.92;13.10;;;;;;;;;;5036271;28;20057;-75
2022/03/18 04:50:25;;;;;;;19.38;14.15;;;;;;;;;;5027590;28;20068;-75
2022/03/18 04:52:52;;;;;;;20.25;14.25;;;;;;;;;;5025592;28;20048;-76
2022/03/18 04:55:20;;;;;;;16.50;13.45;;;;;;;;;;5023226;28;20041;-76
2022/03/18 04:57:47;;;;;;;24.98;15.00;;;;;;;;;;5024726;28;20052;-76
2022/03/18 05:00:14;;;;;;;18.95;14.45;;;;;;;;;;5024807;28;20033;-75
2022/03/18 05:02:43;;;;;;;17.15;13.57;;;;;;;;;;5030283;28;20037;-76
2022/03/18 05:05:11;;;;;;;17.48;14.45;;;;;;;;;;5034521;28;20041;-76
2022/03/18 05:07:39;;;;;;;18.27;14.40;;;;;;;;;;5029820;28;20060;-76
2022/03/18 05:10:08;;;;;;;22.23;16.27;;;;;;;;;;5028089;28;20117;-76
2022/03/18 05:12:35;;;;;;;19.65;15.18;;;;;;;;;;5017959;28;20053;-76
2022/03/18 05:15:02;;;;;;;18.85;14.85;;;;;;;;;;5028755;28;20041;-76
2022/03/18 05:17:30;;;;;;;16.98;13.07;;;;;;;;;;5023149;28;20100;-76
2022/03/18 05:20:01;;;;;;;18.40;14.68;;;;;;;;;;5018937;28;20072;-75
2022/03/18 05:22:30;;;;;;;22.48;16.27;;;;;;;;;;5020985;28;20034;-75
2022/03/18 05:24:58;;;;;;;21.20;16.35;;;;;;;;;;5023823;28;20038;-75
2022/03/18 05:27:26;;;;;;;18.73;15.07;;;;;;;;;;5023384;28;20061;-75
2022/03/18 05:29:55;;;;;;;24.50;18.70;;;;;;;;;;5019997;28;20065;-75
2022/03/18 05:32:22;;;;;;;27.83;19.60;;;;;;;;;;5063289;23;20505;-76
2022/03/18 05:34:49;;;;;;;21.27;16.52;;;;;;;;;;5020168;28;20038;-77
2022/03/18 05:37:17;;;;;;;22.63;16.88;;;;;;;;;;5009451;28;20046;-76
2022/03/18 05:39:44;;;;;;;26.15;19.02;;;;;;;;;;5004082;28;20037;-79
2022/03/18 05:42:12;;;;;;;26.27;18.40;;;;;;;;;;5002012;28;20042;-77
2022/03/18 05:44:39;;;;;;;26.27;20.05;;;;;;;;;;5012573;28;20290;-76
2022/03/18 05:47:07;;;;;;;25.63;17.70;;;;;;;;;;5009639;28;20052;-75
2022/03/18 05:49:34;;;;;;;27.58;19.67;;;;;;;;;;5007370;28;20295;-76
2022/03/18 05:52:07;;;;;;;32.45;21.42;;;;;;;;;;5011290;28;20045;-77
2022/03/18 05:54:34;;;;;;;22.05;16.52;;;;;;;;;;5014546;28;20213;-75
2022/03/18 05:57:02;;;;;;;28.00;19.20;;;;;;;;;;5013610;28;20042;-75
2022/03/18 05:59:32;;;;;;;28.88;19.10;;;;;;;;;;5011120;28;20045;-75
2022/03/18 06:02:00;;;;;;;28.23;18.70;;;;;;;;;;5011416;28;20046;-76
2022/03/18 06:04:29;;;;;;;24.95;16.25;;;;;;;;;;5010688;28;20034;-76
2022/03/18 06:06:56;;;;;;;31.40;18.88;;;;;;;;;;5006164;28;20041;-76
2022/03/18 06:12:10;;;;;;;27.83;19.17;;;;;;;;;;5005520;28;20125;-77
2022/03/18 06:14:37;;;;;;;23.85;16.70;;;;;;;;;;5011443;28;20511;-76
2022/03/18 06:17:05;;;;;;;27.83;18.75;;;;;;;;;;5010561;28;20465;-76
2022/03/18 06:19:33;;;;;;;25.20;16.75;;;;;;;;;;5009130;28;20541;-76
2022/03/18 06:22:01;;;;;;;20.38;14.82;;;;;;;;;;5007534;28;20391;-76
2022/03/18 06:24:29;;;;;;;22.35;16.75;;;;;;;;;;5006721;28;20038;-75
2022/03/18 06:26:57;;;;;;;23.98;16.50;;;;;;;;;;5014742;28;20029;-76
2022/03/18 06:29:24;;;;;;;24.52;18.33;;;;;;;;;;5012641;28;20217;-76
2022/03/18 06:31:52;;;;;;;22.98;17.50;;;;;;;;;;5010085;28;20050;-76
2022/03/18 06:34:23;;;;;;;21.27;15.63;;;;;;;;;;5007512;28;20068;-77
2022/03/18 06:36:51;;;;;;;20.83;15.88;;;;;;;;;;5007263;28;20140;-77
2022/03/18 06:39:20;;;;;;;21.98;16.45;;;;;;;;;;5008520;28;20038;-75
2022/03/18 06:41:47;;;;;;;28.85;18.88;;;;;;;;;;5005555;28;20033;-75
2022/03/18 06:44:15;;;;;;;21.38;15.95;;;;;;;;;;5011115;28;20041;-75
2022/03/18 06:46:42;;;;;;;21.10;16.45;;;;;;;;;;5007582;28;20050;-75
2022/03/18 06:49:11;;;;;;;27.35;18.35;;;;;;;;;;5010647;28;20478;-75
2022/03/18 06:51:39;;;;;;;22.27;17.30;;;;;;;;;;5007699;28;20030;-76
2022/03/18 06:54:06;;;;;;;23.60;17.52;;;;;;;;;;5009892;28;20037;-77
2022/03/18 06:56:34;;;;;;;23.85;16.60;;;;;;;;;;5005497;28;20053;-78
2022/03/18 06:59:01;;;;;;;23.70;17.60;;;;;;;;;;5007750;28;20042;-76
2022/03/18 07:01:28;;;;;;;20.20;16.75;;;;;;;;;;5008671;28;20195;-75
2022/03/18 07:03:56;;;;;;;22.85;17.45;;;;;;;;;;5007389;28;21007;-78
2022/03/18 07:06:24;;;;;;;21.20;16.90;;;;;;;;;;5012606;28;20039;-78
2022/03/18 07:08:51;;;;;;;19.98;16.52;;;;;;;;;;5005665;28;20044;-76
2022/03/18 07:11:20;;;;;;;24.20;16.73;;;;;;;;;;4991469;28;20124;-76
2022/03/18 07:13:47;;;;;;;20.65;16.45;;;;;;;;;;5011195;28;20072;-76
2022/03/18 07:19:02;;;;;;;19.52;15.25;;;;;;;;;;5008115;28;20129;-76
2022/03/18 07:21:29;;;;;;;22.55;16.08;;;;;;;;;;5008447;28;20040;-75
2022/03/18 07:23:57;;;;;;;19.10;15.63;;;;;;;;;;5012699;28;20044;-77
2022/03/18 07:26:24;;;;;;;24.42;17.27;;;;;;;;;;5004664;28;20045;-76
2022/03/18 07:28:52;;;;;;;22.95;16.25;;;;;;;;;;4998103;28;20084;-78
2022/03/18 07:31:19;;;;;;;20.83;16.95;;;;;;;;;;4997859;28;20050;-76
2022/03/18 07:33:47;;;;;;;21.23;14.85;;;;;;;;;;5005836;28;20050;-78
2022/03/18 07:36:14;;;;;;;18.48;14.23;;;;;;;;;;5007498;28;20062;-76
2022/03/18 07:38:43;;;;;;;16.45;14.30;;;;;;;;;;5008242;28;20057;-76
2022/03/18 07:41:13;;;;;;;23.00;15.13;;;;;;;;;;4990636;28;20088;-79
2022/03/18 07:43:44;;;;;;;20.15;14.73;;;;;;;;;;5008984;28;20038;-78
2022/03/18 07:46:11;;;;;;;23.30;15.63;;;;;;;;;;5009675;28;20042;-76
2022/03/18 07:48:40;;;;;;;17.98;15.07;;;;;;;;;;5007759;28;20076;-76
2022/03/18 07:51:07;;;;;;;21.02;15.60;;;;;;;;;;5010586;28;20042;-76
2022/03/18 07:53:35;;;;;;;19.92;15.27;;;;;;;;;;5010781;28;20065;-76
2022/03/18 07:56:02;;;;;;;18.00;15.10;;;;;;;;;;5003384;28;20065;-80
2022/03/18 07:58:31;;;;;;;18.80;14.90;;;;;;;;;;5008505;28;20464;-78
2022/03/18 08:00:58;;;;;;;17.38;14.10;;;;;;;;;;5009608;28;20185;-76
2022/03/18 08:03:26;;;;;;;20.95;14.48;;;;;;;;;;5010711;28;20037;-76
2022/03/18 08:05:54;;;;;;;22.23;14.65;;;;;;;;;;5009802;28;20056;-76
2022/03/18 08:08:21;;;;;;;17.38;14.68;;;;;;;;;;5008362;28;20434;-76
2022/03/18 08:10:49;;;;;;;20.88;15.98;;;;;;;;;;4994493;28;20494;-76
2022/03/18 08:13:16;;;;;;;20.35;15.48;;;;;;;;;;5008580;28;20490;-76
2022/03/18 08:15:44;;;;;;;19.90;15.55;;;;;;;;;;5009535;28;20069;-77
2022/03/18 08:18:12;;;;;;;22.48;14.90;;;;;;;;;;5009884;28;20577;-77
2022/03/18 08:20:43;;;;;;;18.77;16.17;;;;;;;;;;5008341;28;20096;-78
2022/03/18 08:23:12;;;;;;;18.75;15.63;;;;;;;;;;5008811;28;20048;-77
2022/03/18 08:25:40;;;;;;;18.02;15.38;;;;;;;;;;5005161;28;20042;-76
2022/03/18 08:28:08;;;;;;;21.40;16.08;;;;;;;;;;5004575;28;20052;-76
2022/03/18 08:30:36;;;;;;;19.67;15.98;;;;;;;;;;5008342;28;20129;-76
2022/03/18 08:33:03;;;;;;;20.08;15.20;;;;;;;;;;5010873;28;20054;-77
2022/03/18 08:35:31;;;;;;;19.30;16.05;;;;;;;;;;5011219;28;20088;-78
2022/03/18 08:37:59;;;;;;;20.20;15.10;;;;;;;;;;5009848;28;20048;-77
2022/03/18 08:40:28;;;;;;;19.92;15.40;;;;;;;;;;5011110;28;20418;-78
2022/03/18 08:42:56;;;;;;;26.85;16.98;;;;;;;;;;5009066;28;20125;-77
2022/03/18 08:45:24;;;;;;;19.95;16.88;;;;;;;;;;5010720;28;20532;-76
2022/03/18 08:47:51;;;;;;;18.38;15.82;;;;;;;;;;5010714;28;20046;-77
2022/03/18 08:50:20;;;;;;;24.42;15.98;;;;;;;;;;5010262;28;20049;-76
2022/03/18 08:52:49;;;;;;;18.27;15.95;;;;;;;;;;5010822;28;20041;-76
2022/03/18 08:55:16;;;;;;;23.55;15.70;;;;;;;;;;5009609;28;20041;-76
2022/03/18 08:57:44;;;;;;;19.45;16.15;;;;;;;;;;5006267;28;20126;-79
2022/03/18 09:00:14;;;;;;;17.60;15.65;;;;;;;;;;5008109;28;20104;-75
2022/03/18 09:02:43;;;;;;;20.88;17.10;;;;;;;;;;5009688;28;20563;-76
2022/03/18 09:05:11;;;;;;;22.67;16.83;;;;;;;;;;5010032;28;20034;-76
2022/03/18 09:07:39;;;;;;;21.35;16.73;;;;;;;;;;5010854;28;20040;-78
2022/03/18 09:10:08;;;;;;;20.48;17.33;;;;;;;;;;5009683;28;20038;-76
2022/03/18 09:12:35;;;;;;;26.10;18.65;;;;;;;;;;5010523;28;20046;-76
2022/03/18 09:15:03;;;;;;;22.75;18.17;;;;;;;;;;5007642;28;21666;-77
2022/03/18 09:17:31;;;;;;;22.33;17.30;;;;;;;;;;5009698;28;20269;-76
2022/03/18 09:19:58;;;;;;;22.83;19.10;;;;;;;;;;5010649;28;20335;-76
2022/03/18 09:22:26;;;;;;;21.48;18.85;;;;;;;;;;5013785;28;20517;-76
2022/03/18 09:24:54;;;;;;;23.52;18.95;;;;;;;;;;5013014;28;20038;-76
2022/03/18 09:27:21;;;;;;;21.33;18.73;;;;;;;;;;5012788;28;20084;-76
2022/03/18 09:29:48;;;;;;;23.15;18.17;;;;;;;;;;5013426;28;20100;-76
2022/03/18 09:32:16;;;;;;;22.67;18.35;;;;;;;;;;5012582;28;20045;-78
2022/03/18 09:34:43;;;;;;;23.05;17.63;;;;;;;;;;5011306;28;20125;-75
2022/03/18 09:37:10;;;;;;;20.05;17.08;;;;;;;;;;5012963;28;20042;-76
2022/03/18 09:39:38;;;;;;;21.15;18.85;;;;;;;;;;5014214;28;20045;-76
2022/03/18 09:42:09;;;;;;;21.57;18.13;;;;;;;;;;5013805;28;20050;-76
2022/03/18 09:44:37;;;;;;;22.08;18.23;;;;;;;;;;5013540;28;20046;-80
2022/03/18 09:47:05;;;;;;;20.02;17.63;;;;;;;;;;5013636;28;20038;-76
2022/03/18 09:49:33;;;;;;;19.70;17.60;;;;;;;;;;5012812;28;20045;-76
2022/03/18 09:52:00;;;;;;;18.83;16.67;;;;;;;;;;5012942;28;20038;-76
2022/03/18 09:54:29;;;;;;;20.98;17.17;;;;;;;;;;5013856;28;20141;-77
2022/03/18 09:56:57;;;;;;;19.77;17.65;;;;;;;;;;5013007;28;20042;-76
2022/03/18 09:59:26;;;;;;;19.60;17.13;;;;;;;;;;5026129;23;20045;-77
2022/03/18 10:02:12;;;;;;;20.67;17.88;;;;;;;;;;5027361;28;20034;-77
2022/03/18 10:05:13;;;;;;;20.05;17.25;;;;;;;;;;5009392;28;20050;-76
2022/03/18 10:07:52;;;;;;;17.67;15.77;;;;;;;;;;4985788;28;20401;-76
2022/03/18 10:10:23;;;;;;;21.00;17.48;;;;;;;;;;5009699;28;20129;-77
2022/03/18 10:12:54;;;;;;;18.65;16.65;;;;;;;;;;5008017;28;20073;-77
2022/03/18 10:15:24;;;;;;;20.08;16.63;;;;;;;;;;5001806;28;20050;-77
2022/03/18 10:17:58;;;;;;;17.48;15.70;;;;;;;;;;5010505;28;20075;-76
2022/03/18 10:20:27;;;;;;;17.90;15.40;;;;;;;;;;5010434;28;20421;-76
2022/03/18 10:22:55;;;;;;;16.23;13.90;;;;;;;;;;5011196;28;20365;-76
2022/03/18 10:25:42;;;;;;;18.33;15.35;;;;;;;;;;4993377;28;20568;-77
2022/03/18 10:28:10;;;;;;;15.00;10.80;;;;;;;;;;5010973;28;20053;-77
2022/03/18 10:30:38;;;;;;;15.82;14.13;;;;;;;;;;5011693;28;20033;-77
2022/03/18 10:33:11;;;;;;;16.65;13.95;;;;;;;;;;5010436;28;20128;-77
2022/03/18 10:38:27;;;;;;;16.15;14.45;;;;;;;;;;5011476;28;20042;-77
2022/03/18 10:40:55;;;;;;;14.15;12.18;;;;;;;;;;5011192;28;20498;-78
2022/03/18 10:43:23;;;;;;;18.23;14.02;;;;;;;;;;5010138;28;20521;-77
2022/03/18 10:46:00;;;;;;;16.67;13.70;;;;;;;;;;5009389;28;20478;-77
2022/03/18 10:48:28;;;;;;;13.82;12.15;;;;;;;;;;5010618;28;20321;-77
2022/03/18 10:51:05;;;;;;;14.10;12.25;;;;;;;;;;5009450;28;20045;-76
2022/03/18 10:53:34;;;;;;;13.45;12.00;;;;;;;;;;5011511;28;20150;-77
2022/03/18 10:56:02;;;;;;;14.98;11.50;;;;;;;;;;5009247;28;20049;-77
2022/03/18 10:58:32;;;;;;;14.25;11.98;;;;;;;;;;5011411;28;20042;-76
2022/03/18 11:01:03;;;;;;;11.07;9.85;;;;;;;;;;5011096;28;20042;-77
2022/03/18 11:03:31;;;;;;;;;;;;;;;;;;5007843;28;20117;-76
2022/03/18 11:06:02;;;;;;;13.23;10.93;;;;;;;;;;5010842;28;19926;-76
2022/03/18 11:08:42;;;;;;;13.15;10.68;;;;;;;;;;4993248;28;20359;-77
2022/03/18 11:11:15;;;;;;;13.65;11.32;;;;;;;;;;5008027;28;20050;-77
2022/03/18 11:13:50;;;;;;;13.75;11.38;;;;;;;;;;5012094;28;20042;-76
2022/03/18 11:16:20;;;;;;;11.90;10.68;;;;;;;;;;5013678;28;20050;-77
2022/03/18 11:18:48;;;;;;;13.30;11.32;;;;;;;;;;5014193;28;20069;-76
2022/03/18 11:21:17;;;;;;;12.02;10.60;;;;;;;;;;5010184;28;20573;-76
2022/03/18 11:23:46;;;;;;;12.57;10.13;;;;;;;;;;5008743;28;20370;-77
2022/03/18 11:26:15;;;;;;;12.23;10.95;;;;;;;;;;5006045;28;20498;-77
2022/03/18 11:28:44;;;;;;;10.85;9.75;;;;;;;;;;5009926;28;20046;-77
2022/03/18 11:31:19;;;;;;;10.82;9.45;;;;;;;;;;5010309;28;20034;-77
2022/03/18 11:34:07;;;;;;;8.93;8.02;;;;;;;;;;5009029;28;20050;-76
2022/03/18 11:36:35;;;;;;;10.65;8.70;;;;;;;;;;4997200;28;20128;-76
2022/03/18 11:39:06;;;;;;;9.45;8.55;;;;;;;;;;5009064;28;20046;-76
2022/03/18 11:41:45;;;;;;;10.20;9.13;;;;;;;;;;5011661;28;20038;-76
2022/03/18 11:44:32;;;;;;;12.75;8.98;;;;;;;;;;5008449;28;20057;-76
2022/03/18 11:47:18;;;;;;;8.90;8.00;;;;;;;;;;5003347;28;20165;-77
2022/03/18 11:49:46;;;;;;;8.43;7.63;;;;;;;;;;4998798;28;20054;-78
2022/03/18 11:52:14;;;;;;;12.75;10.68;;;;;;;;;;4999413;28;20042;-77
2022/03/18 11:55:00;;;;;;;11.30;9.77;;;;;;;;;;5003849;28;20048;-77
2022/03/18 11:57:31;;;;;;;12.45;10.40;;;;;;;;;;5005487;28;20152;-76
2022/03/18 12:00:00;;;;;;;10.30;8.68;;;;;;;;;;5005639;28;20046;-77
2022/03/18 12:02:32;;;;;;;6.72;6.10;;;;;;;;;;4996601;28;20473;-76
2022/03/18 12:05:00;;;;;;;8.23;7.03;;;;;;;;;;5000189;28;20043;-77
2022/03/18 12:07:29;;;;;;;7.75;6.97;;;;;;;;;;5001909;28;20046;-75
2022/03/18 12:10:01;;;;;;;8.40;7.45;;;;;;;;;;5002430;28;20089;-77
2022/03/18 12:12:29;;;;;;;6.82;6.15;;;;;;;;;;5016861;28;20085;-77
2022/03/18 12:14:58;;;;;;;8.45;6.88;;;;;;;;;;4969902;28;20049;-76
2022/03/18 12:17:25;;;;;;;11.82;5.90;;;;;;;;;;4999795;28;20045;-77
2022/03/18 12:19:54;;;;;;;6.32;5.70;;;;;;;;;;5001240;28;21369;-76
2022/03/18 12:22:23;;;;;;;7.70;6.90;;;;;;;;;;4985083;28;20145;-76
2022/03/18 12:24:53;;;;;;;8.57;7.03;;;;;;;;;;4992769;28;20053;-76
2022/03/18 12:27:30;;;;;;;8.40;7.28;;;;;;;;;;4995255;28;20152;-77
2022/03/18 12:29:58;;;;;;;8.23;6.90;;;;;;;;;;4993576;28;20072;-77
2022/03/18 12:32:32;;;;;;;7.47;6.63;;;;;;;;;;4997218;28;20057;-75
2022/03/18 12:35:04;;;;;;;8.13;6.80;;;;;;;;;;4992475;28;20146;-76
2022/03/18 12:37:32;;;;;;;7.40;6.30;;;;;;;;;;4992637;28;20069;-76
2022/03/18 12:40:13;;;;;;;8.90;7.88;;;;;;;;;;4993689;28;20096;-77
2022/03/18 12:42:53;;;;;;;8.68;7.53;;;;;;;;;;4999129;28;20069;-76
2022/03/18 12:45:29;;;;;;;8.02;7.22;;;;;;;;;;5001499;28;20045;-76
2022/03/18 12:47:58;;;;;;;7.80;7.10;;;;;;;;;;5002641;28;20038;-75
2022/03/18 12:50:33;;;;;;;8.85;7.38;;;;;;;;;;4995878;28;20410;-76
2022/03/18 12:53:01;;;;;;;7.35;6.55;;;;;;;;;;5001162;28;20494;-76
2022/03/18 12:55:29;;;;;;;9.05;8.15;;;;;;;;;;5001150;28;20053;-77
2022/03/18 12:58:08;;;;;;;20.27;15.55;;;;;;;;;;5002799;28;20038;-76
2022/03/18 13:00:47;;;;;;;8.98;8.07;;;;;;;;;;5004246;28;20128;-76
2022/03/18 13:03:16;;;;;;;9.52;8.13;;;;;;;;;;4996449;28;20037;-76
2022/03/18 13:05:44;;;;;;;10.15;8.35;;;;;;;;;;4987904;28;20065;-75
2022/03/18 13:08:12;;;;;;;9.45;8.45;;;;;;;;;;4997876;28;20523;-76
2022/03/18 13:10:40;;;;;;;9.30;8.40;;;;;;;;;;5006727;28;20049;-75
2022/03/18 13:13:11;;;;;;;11.27;7.75;;;;;;;;;;5007484;28;20038;-75
2022/03/18 13:15:47;;;;;;;8.98;7.53;;;;;;;;;;5004954;28;20085;-76
2022/03/18 13:18:17;;;;;;;9.82;8.15;;;;;;;;;;4994882;28;20045;-77
2022/03/18 13:20:47;;;;;;;11.90;8.32;;;;;;;;;;4997567;28;20518;-77
2022/03/18 13:23:19;;;;;;;8.70;7.80;;;;;;;;;;5000959;28;20049;-76
2022/03/18 13:25:48;;;;;;;9.95;8.32;;;;;;;;;;5005274;28;20121;-78
2022/03/18 13:28:17;;;;;;;8.82;7.88;;;;;;;;;;5006640;28;20678;-76
2022/03/18 13:33:44;;;;;;;8.05;7.25;;;;;;;;;;5008379;28;20046;-76
2022/03/18 13:36:23;;;;;;;7.97;6.63;;;;;;;;;;5006225;28;20041;-77
2022/03/18 13:38:52;;;;;;;8.93;7.40;;;;;;;;;;5007511;28;20046;-78
2022/03/18 13:41:20;;;;;;;8.10;7.30;;;;;;;;;;5005452;28;20045;-77
2022/03/18 13:43:53;;;;;;;8.63;7.20;;;;;;;;;;5007803;28;20349;-76
2022/03/18 13:46:24;;;;;;;10.15;8.25;;;;;;;;;;5005762;28;20038;-78
2022/03/18 13:48:57;;;;;;;9.85;7.63;;;;;;;;;;5007923;28;20038;-78
2022/03/18 13:51:30;;;;;;;11.02;8.40;;;;;;;;;;5006439;28;20101;-77
2022/03/18 13:54:05;;;;;;;8.18;7.28;;;;;;;;;;4990512;28;20445;-77
2022/03/18 13:56:32;;;;;;;9.82;8.27;;;;;;;;;;5006532;28;20069;-74
2022/03/18 13:59:08;;;;;;;9.75;8.75;;;;;;;;;;5005357;28;20046;-75
2022/03/18 14:01:36;;;;;;;12.43;8.65;;;;;;;;;;5006719;28;20480;-77
2022/03/18 14:04:04;;;;;;;12.60;9.82;;;;;;;;;;5007285;28;20498;-78
2022/03/18 14:06:31;;;;;;;12.25;9.52;;;;;;;;;;5004113;28;20287;-76
2022/03/18 14:09:12;;;;;;;11.43;10.02;;;;;;;;;;4999623;28;20501;-77
2022/03/18 14:14:29;;;;;;;10.65;9.30;;;;;;;;;;5004699;28;20045;-77
2022/03/18 14:17:25;;;;;;;12.10;9.88;;;;;;;;;;5007950;28;20065;-74
2022/03/18 14:19:54;;;;;;;17.50;10.10;;;;;;;;;;4991598;28;20050;-75
2022/03/18 14:22:32;;;;;;;12.48;10.35;;;;;;;;;;5008194;28;20110;-75
2022/03/18 14:25:01;;;;;;;13.65;12.18;;;;;;;;;;5007080;28;20038;-75
2022/03/18 14:27:28;;;;;;;11.98;10.68;;;;;;;;;;5009941;28;20042;-75
2022/03/18 14:29:56;;;;;;;12.82;10.73;;;;;;;;;;5008799;28;20042;-75
2022/03/18 14:32:23;;;;;;;14.40;11.18;;;;;;;;;;5005145;28;20157;-75
2022/03/18 14:34:52;;;;;;;11.75;10.55;;;;;;;;;;5018317;28;20049;-74
2022/03/18 14:37:20;;;;;;;12.38;11.07;;;;;;;;;;4995297;28;20140;-75
2022/03/18 14:39:48;;;;;;;11.98;10.73;;;;;;;;;;4996791;28;20080;-76
2022/03/18 14:42:15;;;;;;;12.50;10.55;;;;;;;;;;5008919;28;20038;-78
2022/03/18 14:44:43;;;;;;;12.43;11.20;;;;;;;;;;5001924;28;20034;-76
2022/03/18 14:47:10;;;;;;;14.05;11.70;;;;;;;;;;5004695;28;20068;-76
2022/03/18 14:49:38;;;;;;;11.40;10.20;;;;;;;;;;5008073;28;20383;-77
2022/03/18 14:52:05;;;;;;;12.65;10.63;;;;;;;;;;5009016;28;20065;-76
2022/03/18 14:57:19;;;;;;;12.38;10.93;;;;;;;;;;4995944;28;20046;-77